x

Columbia River Bar - 20nm West Of Columbia River Mouth (46029) Wave Buoy

8:50pm - Mon 25th Sep 2017 All times are PDT. -7 hours from GMT.

  • Sig Wave height 5.2ft
  • Swell Direction
  • Peak Period 9s
  • Average Period 6s
  • Wind
    13mph, 16mph gusts
  • Sea Temp 58°f
  • Air Temp 59°f
  • Sea Pressure 1019.1mb
  • Columbia River Bar - 20nm West Of Columbia River Mouth
  • Columbia River Bar - 20nm West Of Columbia River Mouth

More Historic Weather Station data

Upgrade to MSW Pro to gain access to the past 30 days of data for over 8000 Wavebouys and Weather Stations around the globe.

Join

Comparision Forecast

View Surf forecast
   
Mon 09/25 8:50pm 5ft 9s 6s 13 16 mph 1019.1mb 58f 59f
7:50pm 5.5ft 9s 6s 16 18 mph 1018.5mb 58f 59f
6:50pm 5ft 8s 5s 16 18 mph 1018.3mb 58f 59f
5:50pm 4.5ft 8s 5s 13 16 mph 1018.5mb 58f 59f
4:50pm 3.5ft 9s 5s 16 18 mph 1018.3mb 58f 59f
3:50pm 3.5ft 8s 5s 16 18 mph 1018.7mb 59f 59f
2:50pm 4ft 9s 5s 13 18 mph 1019.1mb 58f 58f
1:50pm 3.5ft 9s 6s 16 18 mph 1019.3mb 58f 58f
12:50pm 3.5ft 9s 5s 13 18 mph 1019.2mb 58f 58f
11:50am 3.5ft 9s 6s 13 16 mph 1019.4mb 59f 58f
10:50am 3.5ft 9s 6s 13 18 mph 1019.5mb 58f 58f
9:50am 3.5ft 9s 7s 11 13 mph 1019.6mb 58f 58f
8:50am 3.5ft 9s 7s 11 11 mph 1019.6mb 58f 58f
7:50am 3.5ft 9s 7s 7 9 mph 1019.6mb 58f 58f
6:50am 3.5ft 10s 7s 7 7 mph 1019.6mb 58f 58f
5:50am 3.5ft 8s 7s 2 2 mph 1019.7mb 58f 58f
4:50am 3.5ft 9s 7s 2 2 mph 1019.4mb 58f 58f
3:50am 3.5ft 9s 7s 4 7 mph 1019.7mb 59f 58f
2:50am 3.5ft 9s 7s 2 4 mph 1019.9mb 59f 58f
1:50am 3.5ft 10s 7s  -  4 mph 1019.9mb 59f 58f
12:50am 3.5ft 10s 7s  -  2 mph 1020.1mb 59f 58f
Sun 09/24 11:50pm 4ft 9s 7s  -  2 mph 1020.5mb 59f 58f
10:50pm 3.5ft 10s 6s 4 4 mph 1020.7mb 59f 58f
9:50pm 3.5ft 9s 6s 7 7 mph 1020.9mb 58f 58f
8:50pm 3.5ft 7s 6s 9 9 mph 1020.9mb 58f 58f
7:50pm 3.5ft 8s 6s 9 11 mph 1020.6mb 59f 59f
6:50pm 3.5ft 10s 6s 9 11 mph 1020.6mb 59f 59f
5:50pm 3.5ft 11s 6s 11 11 mph 1020.2mb 60f 59f
4:50pm 3.5ft 11s 6s 11 13 mph 1020.5mb 59f 59f
3:50pm 3ft 10s 7s 11 13 mph 1020.9mb 59f 59f
2:50pm 3.5ft 11s 7s 11 11 mph 1020.8mb 60f 59f
1:50pm 3.5ft 11s 6s 9 9 mph 1020.9mb 59f 58f
12:50pm 3.5ft 11s 6s 7 9 mph 1021.2mb 59f 58f
11:50am 4ft 7s 6s 7 7 mph 1021.3mb 59f 58f
10:50am 4ft 7s 6s 7 9 mph 1021.3mb 58f 58f
9:50am 4ft 7s 6s 9 11 mph 1021.2mb 58f 57f
8:50am 4ft 7s 6s 7 9 mph 1021.2mb 58f 58f
7:50am 4ft 7s 6s 7 9 mph 1021mb 58f 57f
6:50am 3.5ft 7s 6s 7 9 mph 1020.9mb 58f 57f
5:50am 3.5ft 7s 6s 9 9 mph 1020.5mb 58f 57f
4:50am 3.5ft 8s 6s 9 11 mph 1020.4mb 58f 57f
3:50am 3.5ft 8s 7s 9 11 mph 1020.5mb 58f 57f
2:50am 3.5ft 8s 7s 11 13 mph 1020.5mb 58f 57f
1:50am 3.5ft 8s 7s 9 11 mph 1020.3mb 58f 58f
12:50am 3.5ft 8s 6s 7 7 mph 1020.4mb 58f 58f
Sat 09/23 11:50pm 3.5ft 7s 6s 4 7 mph 1020.3mb 58f 58f
10:50pm 3.5ft 7s 6s 7 7 mph 1020mb 58f 58f
9:50pm 3.5ft 7s 6s 4 7 mph 1020.2mb 59f 58f
8:50pm 3.5ft 7s 6s 4 7 mph 1019.9mb 59f 58f
7:50pm 4ft 7s 6s 4 7 mph 1019.7mb 59f 58f
6:50pm 4ft 8s 6s 4 7 mph 1019.5mb 59f 58f
5:50pm 3.5ft 7s 6s 4 7 mph 1019.6mb 59f 59f
4:50pm 3.5ft 8s 6s 4 4 mph 1019.5mb 60f 59f
3:50pm 3.5ft 8s 6s  -  2 mph 1019.6mb 59f 58f
2:50pm 3.5ft 8s 6s 2 4 mph 1019.6mb 59f 58f
1:50pm 4ft 7s 6s 4 4 mph 1019.7mb 59f 58f
12:50pm 4.5ft 8s 6s 2 4 mph 1019.4mb 59f 58f
11:50am 4.5ft 8s 6s 2 2 mph 1019.3mb 58f 57f
10:50am 4.5ft 8s 6s 7 9 mph 1019.5mb 58f 57f
9:50am 4.5ft 8s 6s 4 7 mph 1019.4mb 58f 57f
8:50am 4.5ft 8s 7s 2 4 mph 1019.1mb 58f 58f
7:50am 4.5ft 8s 7s 2 2 mph 1018.5mb 58f 59f
6:50am 4.5ft 8s 7s 2 4 mph 1018.1mb 58f 59f
5:50am 4.5ft 8s 7s 4 4 mph 1018mb 58f 58f
4:50am 4.5ft 8s 7s 2 4 mph 1017.8mb 58f 58f
3:50am 5ft 8s 7s  -  2 mph 1017.8mb 58f 59f
2:50am 4.5ft 8s 6s 2 4 mph 1017.9mb 58f 59f
1:50am 5ft 9s 6s 2 4 mph 1018.1mb 58f 59f
12:50am 5ft 9s 6s 4 7 mph 1018.1mb 59f 59f
Fri 09/22 11:50pm 5.5ft 9s 7s 2 4 mph 1018.3mb 59f 59f
10:50pm 5ft 9s 7s 4 4 mph 1018.4mb 59f 59f
9:50pm 5.5ft 9s 7s  -  2 mph 1018.6mb 58f 59f
8:50pm 6ft 9s 7s 4 7 mph 1018.5mb 58f 59f
7:50pm 6ft 9s 7s 4 4 mph 1018.3mb 59f 59f
6:50pm 7ft 9s 8s 4 7 mph 1018.3mb 59f 59f
5:50pm 6ft 9s 8s 4 7 mph 1018.1mb 61f 60f
4:50pm 5ft 9s 7s 2 4 mph 1018.2mb 61f 60f
3:50pm 6ft 9s 8s 2 2 mph 1018.2mb 61f 60f
2:50pm 5ft 10s 7s 2 4 mph 1018.3mb 60f 59f
1:50pm 5ft 10s 7s 2 4 mph 1018.4mb 60f 58f
12:50pm 5.5ft 10s 7s  -  2 mph 1018.1mb 59f 59f
11:50am 5.5ft 10s 7s 2 2 mph 1018.4mb 59f 58f
10:50am 6.5ft 10s 7s 2 4 mph 1018.6mb 58f 58f
9:50am 7ft 9s 7s 4 7 mph 1018.2mb 58f 58f
8:50am 7ft 9s 7s 4 4 mph 1017.9mb 58f 58f
7:50am 7ft 10s 7s 2 4 mph 1017.9mb 57f 58f
6:50am 8.5ft 10s 8s 2 4 mph 1017.5mb 57f 57f
5:50am 7.5ft 9s  -  7 7 mph 1017.1mb 57f 57f
4:50am 7.5ft 11s 8s 7 9 mph 1016.8mb 57f 57f